sensor_id;sensor_type;location;lat;lon;timestamp;temperature;humidity
22680;DHT22;11507;44.858;10.374;2023-03-16T00:00:39;1.70;99.90
22680;DHT22;11507;44.858;10.374;2023-03-16T00:03:05;1.60;99.90
22680;DHT22;11507;44.858;10.374;2023-03-16T00:05:30;1.60;99.90
22680;DHT22;11507;44.858;10.374;2023-03-16T00:07:56;1.60;99.90
22680;DHT22;11507;44.858;10.374;2023-03-16T00:10:22;1.60;99.90
22680;DHT22;11507;44.858;10.374;2023-03-16T00:12:53;1.60;99.90
22680;DHT22;11507;44.858;10.374;2023-03-16T00:15:19;1.60;99.90
22680;DHT22;11507;44.858;10.374;2023-03-16T00:17:45;1.70;99.90
22680;DHT22;11507;44.858;10.374;2023-03-16T00:20:16;1.70;99.90
22680;DHT22;11507;44.858;10.374;2023-03-16T00:22:43;1.70;99.90
22680;DHT22;11507;44.858;10.374;2023-03-16T00:25:11;1.70;99.90
22680;DHT22;11507;44.858;10.374;2023-03-16T00:27:39;1.80;99.90
22680;DHT22;11507;44.858;10.374;2023-03-16T00:30:06;1.80;99.90
22680;DHT22;11507;44.858;10.374;2023-03-16T00:32:35;1.80;99.90
22680;DHT22;11507;44.858;10.374;2023-03-16T00:35:04;1.90;99.90
22680;DHT22;11507;44.858;10.374;2023-03-16T00:37:30;1.80;99.90
22680;DHT22;11507;44.858;10.374;2023-03-16T00:39:59;1.70;99.90
22680;DHT22;11507;44.858;10.374;2023-03-16T00:42:30;1.60;99.90
22680;DHT22;11507;44.858;10.374;2023-03-16T00:44:58;1.50;99.90
22680;DHT22;11507;44.858;10.374;2023-03-16T00:47:26;1.50;99.90
22680;DHT22;11507;44.858;10.374;2023-03-16T00:49:53;1.40;99.90
22680;DHT22;11507;44.858;10.374;2023-03-16T00:52:19;1.30;99.90
22680;DHT22;11507;44.858;10.374;2023-03-16T00:54:45;1.10;99.90
22680;DHT22;11507;44.858;10.374;2023-03-16T00:57:16;1.00;99.90
22680;DHT22;11507;44.858;10.374;2023-03-16T00:59:45;1.00;99.90
22680;DHT22;11507;44.858;10.374;2023-03-16T01:02:11;1.00;99.90
22680;DHT22;11507;44.858;10.374;2023-03-16T01:04:38;1.00;99.90
22680;DHT22;11507;44.858;10.374;2023-03-16T01:07:07;1.10;99.90
22680;DHT22;11507;44.858;10.374;2023-03-16T01:09:36;1.10;99.90
22680;DHT22;11507;44.858;10.374;2023-03-16T01:12:05;1.10;99.90
22680;DHT22;11507;44.858;10.374;2023-03-16T01:14:33;1.00;99.90
22680;DHT22;11507;44.858;10.374;2023-03-16T01:17:04;0.90;99.90
22680;DHT22;11507;44.858;10.374;2023-03-16T01:19:31;0.90;99.90
22680;DHT22;11507;44.858;10.374;2023-03-16T01:21:58;1.00;99.90
22680;DHT22;11507;44.858;10.374;2023-03-16T01:24:25;1.00;99.90
22680;DHT22;11507;44.858;10.374;2023-03-16T01:26:50;1.00;99.90
22680;DHT22;11507;44.858;10.374;2023-03-16T01:29:17;1.10;99.90
22680;DHT22;11507;44.858;10.374;2023-03-16T01:31:43;1.10;99.90
22680;DHT22;11507;44.858;10.374;2023-03-16T01:34:09;1.20;99.90
22680;DHT22;11507;44.858;10.374;2023-03-16T01:36:43;1.30;99.90
22680;DHT22;11507;44.858;10.374;2023-03-16T01:39:10;1.40;99.90
22680;DHT22;11507;44.858;10.374;2023-03-16T01:41:43;1.40;99.90
22680;DHT22;11507;44.858;10.374;2023-03-16T01:44:15;1.40;99.90
22680;DHT22;11507;44.858;10.374;2023-03-16T01:46:42;1.50;99.90
22680;DHT22;11507;44.858;10.374;2023-03-16T01:49:28;1.30;99.90
22680;DHT22;11507;44.858;10.374;2023-03-16T01:51:59;1.20;99.90
22680;DHT22;11507;44.858;10.374;2023-03-16T01:54:34;1.10;99.90
22680;DHT22;11507;44.858;10.374;2023-03-16T01:57:11;1.10;99.90
22680;DHT22;11507;44.858;10.374;2023-03-16T02:02:27;0.90;99.90
22680;DHT22;11507;44.858;10.374;2023-03-16T02:05:02;0.90;99.90
22680;DHT22;11507;44.858;10.374;2023-03-16T02:07:33;0.90;99.90
22680;DHT22;11507;44.858;10.374;2023-03-16T02:10:02;0.90;99.90
22680;DHT22;11507;44.858;10.374;2023-03-16T02:12:29;1.00;99.90
22680;DHT22;11507;44.858;10.374;2023-03-16T02:14:57;1.10;99.90
22680;DHT22;11507;44.858;10.374;2023-03-16T02:17:24;1.10;99.90
22680;DHT22;11507;44.858;10.374;2023-03-16T02:22:45;1.20;99.90
22680;DHT22;11507;44.858;10.374;2023-03-16T02:25:14;1.30;99.90
22680;DHT22;11507;44.858;10.374;2023-03-16T02:27:53;1.30;99.90
22680;DHT22;11507;44.858;10.374;2023-03-16T02:30:21;1.20;99.90
22680;DHT22;11507;44.858;10.374;2023-03-16T02:33:05;1.10;99.90
22680;DHT22;11507;44.858;10.374;2023-03-16T02:35:32;1.20;99.90
22680;DHT22;11507;44.858;10.374;2023-03-16T02:37:59;1.10;99.90
22680;DHT22;11507;44.858;10.374;2023-03-16T02:40:32;1.00;99.90
22680;DHT22;11507;44.858;10.374;2023-03-16T02:43:07;1.10;99.90
22680;DHT22;11507;44.858;10.374;2023-03-16T02:45:46;1.00;99.90
22680;DHT22;11507;44.858;10.374;2023-03-16T02:48:24;1.00;99.90
22680;DHT22;11507;44.858;10.374;2023-03-16T02:50:52;0.90;99.90
22680;DHT22;11507;44.858;10.374;2023-03-16T02:53:19;0.90;99.90
22680;DHT22;11507;44.858;10.374;2023-03-16T02:55:47;0.90;99.90
22680;DHT22;11507;44.858;10.374;2023-03-16T02:58:13;0.90;99.90
22680;DHT22;11507;44.858;10.374;2023-03-16T03:00:39;1.00;99.90
22680;DHT22;11507;44.858;10.374;2023-03-16T03:03:10;1.00;99.90
22680;DHT22;11507;44.858;10.374;2023-03-16T03:05:39;1.10;99.90
22680;DHT22;11507;44.858;10.374;2023-03-16T03:08:05;1.10;99.90
22680;DHT22;11507;44.858;10.374;2023-03-16T03:10:36;1.30;99.90
22680;DHT22;11507;44.858;10.374;2023-03-16T03:13:02;1.50;99.90
22680;DHT22;11507;44.858;10.374;2023-03-16T03:15:28;1.20;99.90
22680;DHT22;11507;44.858;10.374;2023-03-16T03:18:03;1.10;99.90
22680;DHT22;11507;44.858;10.374;2023-03-16T03:20:30;0.90;99.90
22680;DHT22;11507;44.858;10.374;2023-03-16T03:22:56;0.70;99.90
22680;DHT22;11507;44.858;10.374;2023-03-16T03:25:22;0.60;99.90
22680;DHT22;11507;44.858;10.374;2023-03-16T03:27:50;0.50;99.90
22680;DHT22;11507;44.858;10.374;2023-03-16T03:30:21;0.50;99.90
22680;DHT22;11507;44.858;10.374;2023-03-16T03:32:49;0.50;99.90
22680;DHT22;11507;44.858;10.374;2023-03-16T03:35:19;0.50;99.90
22680;DHT22;11507;44.858;10.374;2023-03-16T03:37:46;0.50;99.90
22680;DHT22;11507;44.858;10.374;2023-03-16T03:40:16;0.50;99.90
22680;DHT22;11507;44.858;10.374;2023-03-16T03:42:46;0.60;99.90
22680;DHT22;11507;44.858;10.374;2023-03-16T03:45:12;0.60;99.90
22680;DHT22;11507;44.858;10.374;2023-03-16T03:47:40;0.50;99.90
22680;DHT22;11507;44.858;10.374;2023-03-16T03:50:10;0.60;99.90
22680;DHT22;11507;44.858;10.374;2023-03-16T03:52:46;0.60;99.90
22680;DHT22;11507;44.858;10.374;2023-03-16T03:55:12;0.50;99.90
22680;DHT22;11507;44.858;10.374;2023-03-16T03:57:37;0.50;99.90
22680;DHT22;11507;44.858;10.374;2023-03-16T04:00:06;0.40;99.90
22680;DHT22;11507;44.858;10.374;2023-03-16T04:02:41;0.40;99.90
22680;DHT22;11507;44.858;10.374;2023-03-16T04:05:14;0.40;99.90
22680;DHT22;11507;44.858;10.374;2023-03-16T04:07:40;0.30;99.90
22680;DHT22;11507;44.858;10.374;2023-03-16T04:10:09;0.30;99.90
22680;DHT22;11507;44.858;10.374;2023-03-16T04:12:39;0.30;99.90
22680;DHT22;11507;44.858;10.374;2023-03-16T04:15:07;0.30;99.90
22680;DHT22;11507;44.858;10.374;2023-03-16T04:17:44;0.30;99.90
22680;DHT22;11507;44.858;10.374;2023-03-16T04:20:11;0.30;99.90
22680;DHT22;11507;44.858;10.374;2023-03-16T04:22:45;0.30;99.90
22680;DHT22;11507;44.858;10.374;2023-03-16T04:25:15;0.30;99.90
22680;DHT22;11507;44.858;10.374;2023-03-16T04:27:42;0.20;99.90
22680;DHT22;11507;44.858;10.374;2023-03-16T04:30:11;0.10;99.90
22680;DHT22;11507;44.858;10.374;2023-03-16T04:32:42;0.20;99.90
22680;DHT22;11507;44.858;10.374;2023-03-16T04:35:09;0.10;99.90
22680;DHT22;11507;44.858;10.374;2023-03-16T04:37:44;0.20;99.90
22680;DHT22;11507;44.858;10.374;2023-03-16T04:40:11;0.10;99.90
22680;DHT22;11507;44.858;10.374;2023-03-16T04:42:42;0.10;99.90
22680;DHT22;11507;44.858;10.374;2023-03-16T04:45:12;0.10;99.90
22680;DHT22;11507;44.858;10.374;2023-03-16T04:47:39;0.10;99.90
22680;DHT22;11507;44.858;10.374;2023-03-16T04:50:06;0.00;99.90
22680;DHT22;11507;44.858;10.374;2023-03-16T04:52:32;0.00;99.90
22680;DHT22;11507;44.858;10.374;2023-03-16T04:55:01;0.00;99.90
22680;DHT22;11507;44.858;10.374;2023-03-16T04:57:28;0.00;99.90
22680;DHT22;11507;44.858;10.374;2023-03-16T04:59:55;0.00;99.90
22680;DHT22;11507;44.858;10.374;2023-03-16T05:02:36;0.00;99.90
22680;DHT22;11507;44.858;10.374;2023-03-16T05:05:04;0.00;99.90
22680;DHT22;11507;44.858;10.374;2023-03-16T05:07:31;0.00;99.90
22680;DHT22;11507;44.858;10.374;2023-03-16T05:09:57;0.00;99.90
22680;DHT22;11507;44.858;10.374;2023-03-16T05:12:23;0.00;99.90
22680;DHT22;11507;44.858;10.374;2023-03-16T05:14:53;0.00;99.90
22680;DHT22;11507;44.858;10.374;2023-03-16T05:17:48;0.00;99.90
22680;DHT22;11507;44.858;10.374;2023-03-16T05:20:14;0.00;99.90
22680;DHT22;11507;44.858;10.374;2023-03-16T05:22:45;0.00;99.90
22680;DHT22;11507;44.858;10.374;2023-03-16T05:25:17;0.10;99.90
22680;DHT22;11507;44.858;10.374;2023-03-16T05:27:50;0.10;99.90
22680;DHT22;11507;44.858;10.374;2023-03-16T05:30:24;0.10;99.90
22680;DHT22;11507;44.858;10.374;2023-03-16T05:32:53;0.10;99.90
22680;DHT22;11507;44.858;10.374;2023-03-16T05:35:24;0.10;99.90
22680;DHT22;11507;44.858;10.374;2023-03-16T05:37:52;0.10;99.90
22680;DHT22;11507;44.858;10.374;2023-03-16T05:40:20;0.00;99.90
22680;DHT22;11507;44.858;10.374;2023-03-16T05:42:56;0.00;99.90
22680;DHT22;11507;44.858;10.374;2023-03-16T05:45:26;0.00;99.90
22680;DHT22;11507;44.858;10.374;2023-03-16T05:48:07;-0.10;99.90
22680;DHT22;11507;44.858;10.374;2023-03-16T05:50:38;-0.10;99.90
22680;DHT22;11507;44.858;10.374;2023-03-16T05:53:04;-0.10;99.90
22680;DHT22;11507;44.858;10.374;2023-03-16T05:55:29;-0.10;99.90
22680;DHT22;11507;44.858;10.374;2023-03-16T05:58:00;0.00;99.90
22680;DHT22;11507;44.858;10.374;2023-03-16T06:00:26;0.00;99.90
22680;DHT22;11507;44.858;10.374;2023-03-16T06:03:04;0.10;99.90
22680;DHT22;11507;44.858;10.374;2023-03-16T06:05:34;0.20;99.90
22680;DHT22;11507;44.858;10.374;2023-03-16T06:08:01;0.20;99.90
22680;DHT22;11507;44.858;10.374;2023-03-16T06:10:28;0.40;99.90
22680;DHT22;11507;44.858;10.374;2023-03-16T06:12:54;0.60;99.90
22680;DHT22;11507;44.858;10.374;2023-03-16T06:15:20;0.70;99.90
22680;DHT22;11507;44.858;10.374;2023-03-16T06:17:50;0.90;99.90
22680;DHT22;11507;44.858;10.374;2023-03-16T06:20:16;1.00;99.90
22680;DHT22;11507;44.858;10.374;2023-03-16T06:22:44;1.10;99.90
22680;DHT22;11507;44.858;10.374;2023-03-16T06:25:12;1.20;99.90
22680;DHT22;11507;44.858;10.374;2023-03-16T06:27:44;1.40;99.90
22680;DHT22;11507;44.858;10.374;2023-03-16T06:30:16;1.60;99.90
22680;DHT22;11507;44.858;10.374;2023-03-16T06:32:43;1.80;99.90
22680;DHT22;11507;44.858;10.374;2023-03-16T06:35:13;2.00;99.90
22680;DHT22;11507;44.858;10.374;2023-03-16T06:38:00;2.30;99.90
22680;DHT22;11507;44.858;10.374;2023-03-16T06:40:41;2.40;99.90
22680;DHT22;11507;44.858;10.374;2023-03-16T06:43:07;2.60;99.90
22680;DHT22;11507;44.858;10.374;2023-03-16T06:45:34;2.70;99.90
22680;DHT22;11507;44.858;10.374;2023-03-16T06:48:01;2.90;99.90
22680;DHT22;11507;44.858;10.374;2023-03-16T06:50:27;3.10;99.90
22680;DHT22;11507;44.858;10.374;2023-03-16T06:52:54;3.30;99.90
22680;DHT22;11507;44.858;10.374;2023-03-16T06:55:20;3.50;99.90
22680;DHT22;11507;44.858;10.374;2023-03-16T06:57:48;3.70;99.90
22680;DHT22;11507;44.858;10.374;2023-03-16T07:00:18;3.80;99.90
22680;DHT22;11507;44.858;10.374;2023-03-16T07:02:44;4.00;99.90
22680;DHT22;11507;44.858;10.374;2023-03-16T07:05:11;4.10;99.90
22680;DHT22;11507;44.858;10.374;2023-03-16T07:07:42;4.30;99.90
22680;DHT22;11507;44.858;10.374;2023-03-16T07:10:13;4.50;99.90
22680;DHT22;11507;44.858;10.374;2023-03-16T07:12:40;4.70;99.90
22680;DHT22;11507;44.858;10.374;2023-03-16T07:15:07;4.90;99.90
22680;DHT22;11507;44.858;10.374;2023-03-16T07:17:34;5.10;99.90
22680;DHT22;11507;44.858;10.374;2023-03-16T07:20:04;5.30;99.90
22680;DHT22;11507;44.858;10.374;2023-03-16T07:22:31;5.50;99.90
22680;DHT22;11507;44.858;10.374;2023-03-16T07:24:59;5.70;99.90
22680;DHT22;11507;44.858;10.374;2023-03-16T07:27:26;5.80;99.90
22680;DHT22;11507;44.858;10.374;2023-03-16T07:29:54;6.10;99.90
22680;DHT22;11507;44.858;10.374;2023-03-16T07:32:21;6.20;99.90
22680;DHT22;11507;44.858;10.374;2023-03-16T07:34:49;6.40;99.90
22680;DHT22;11507;44.858;10.374;2023-03-16T07:37:15;6.60;99.90
22680;DHT22;11507;44.858;10.374;2023-03-16T07:39:50;6.70;99.90
22680;DHT22;11507;44.858;10.374;2023-03-16T07:42:20;6.80;99.90
22680;DHT22;11507;44.858;10.374;2023-03-16T07:45:09;6.80;99.90
22680;DHT22;11507;44.858;10.374;2023-03-16T07:47:35;6.90;99.90
22680;DHT22;11507;44.858;10.374;2023-03-16T07:50:21;7.10;99.90
22680;DHT22;11507;44.858;10.374;2023-03-16T07:52:48;7.30;99.90
22680;DHT22;11507;44.858;10.374;2023-03-16T07:55:15;7.40;99.90
22680;DHT22;11507;44.858;10.374;2023-03-16T07:57:42;7.60;99.90
22680;DHT22;11507;44.858;10.374;2023-03-16T08:00:13;7.60;99.90
22680;DHT22;11507;44.858;10.374;2023-03-16T08:02:40;7.80;99.90
22680;DHT22;11507;44.858;10.374;2023-03-16T08:05:09;8.10;99.90
22680;DHT22;11507;44.858;10.374;2023-03-16T08:07:38;8.30;99.90
22680;DHT22;11507;44.858;10.374;2023-03-16T08:10:14;8.70;99.90
22680;DHT22;11507;44.858;10.374;2023-03-16T08:12:48;8.90;99.90
22680;DHT22;11507;44.858;10.374;2023-03-16T08:15:14;9.00;99.90
22680;DHT22;11507;44.858;10.374;2023-03-16T08:17:40;9.10;99.90
22680;DHT22;11507;44.858;10.374;2023-03-16T08:20:10;9.30;99.90
22680;DHT22;11507;44.858;10.374;2023-03-16T08:22:39;9.50;99.90
22680;DHT22;11507;44.858;10.374;2023-03-16T08:25:07;9.80;99.90
22680;DHT22;11507;44.858;10.374;2023-03-16T08:27:38;9.90;99.90
22680;DHT22;11507;44.858;10.374;2023-03-16T08:30:07;9.90;99.90
22680;DHT22;11507;44.858;10.374;2023-03-16T08:32:39;10.10;99.90
22680;DHT22;11507;44.858;10.374;2023-03-16T08:35:09;10.50;99.90
22680;DHT22;11507;44.858;10.374;2023-03-16T08:37:39;10.70;99.90
22680;DHT22;11507;44.858;10.374;2023-03-16T08:40:07;11.00;99.90
22680;DHT22;11507;44.858;10.374;2023-03-16T08:42:41;11.30;99.90
22680;DHT22;11507;44.858;10.374;2023-03-16T08:45:10;11.50;99.70
22680;DHT22;11507;44.858;10.374;2023-03-16T08:47:37;11.90;99.90
22680;DHT22;11507;44.858;10.374;2023-03-16T08:50:07;12.30;99.90
22680;DHT22;11507;44.858;10.374;2023-03-16T08:52:38;12.80;99.90
22680;DHT22;11507;44.858;10.374;2023-03-16T08:55:06;13.30;99.90
22680;DHT22;11507;44.858;10.374;2023-03-16T08:57:33;13.70;99.10
22680;DHT22;11507;44.858;10.374;2023-03-16T09:00:02;14.00;95.80
22680;DHT22;11507;44.858;10.374;2023-03-16T09:02:38;14.30;96.10
22680;DHT22;11507;44.858;10.374;2023-03-16T09:05:10;14.50;94.90
22680;DHT22;11507;44.858;10.374;2023-03-16T09:07:37;14.80;93.30
22680;DHT22;11507;44.858;10.374;2023-03-16T09:10:05;15.20;91.80
22680;DHT22;11507;44.858;10.374;2023-03-16T09:12:35;15.60;92.10
22680;DHT22;11507;44.858;10.374;2023-03-16T09:15:02;16.00;90.60
22680;DHT22;11507;44.858;10.374;2023-03-16T09:17:29;16.30;88.30
22680;DHT22;11507;44.858;10.374;2023-03-16T09:19:55;16.80;88.80
22680;DHT22;11507;44.858;10.374;2023-03-16T09:22:24;17.30;87.40
22680;DHT22;11507;44.858;10.374;2023-03-16T09:24:53;17.80;85.60
22680;DHT22;11507;44.858;10.374;2023-03-16T09:27:21;17.90;84.00
22680;DHT22;11507;44.858;10.374;2023-03-16T09:29:47;18.30;81.90
22680;DHT22;11507;44.858;10.374;2023-03-16T09:32:14;18.60;79.00
22680;DHT22;11507;44.858;10.374;2023-03-16T09:34:40;18.50;73.40
22680;DHT22;11507;44.858;10.374;2023-03-16T09:37:06;18.10;73.90
22680;DHT22;11507;44.858;10.374;2023-03-16T09:39:32;18.40;81.00
22680;DHT22;11507;44.858;10.374;2023-03-16T09:42:12;18.80;80.80
22680;DHT22;11507;44.858;10.374;2023-03-16T09:45:08;19.30;76.70
22680;DHT22;11507;44.858;10.374;2023-03-16T09:47:37;19.60;78.00
22680;DHT22;11507;44.858;10.374;2023-03-16T09:50:12;20.00;75.20
22680;DHT22;11507;44.858;10.374;2023-03-16T09:52:52;20.40;75.30
22680;DHT22;11507;44.858;10.374;2023-03-16T09:55:30;21.00;75.50
22680;DHT22;11507;44.858;10.374;2023-03-16T09:58:00;21.60;73.60
22680;DHT22;11507;44.858;10.374;2023-03-16T10:00:37;22.20;71.30
22680;DHT22;11507;44.858;10.374;2023-03-16T10:05:58;22.50;69.40
22680;DHT22;11507;44.858;10.374;2023-03-16T10:08:42;22.60;71.50
22680;DHT22;11507;44.858;10.374;2023-03-16T10:11:21;22.70;68.80
22680;DHT22;11507;44.858;10.374;2023-03-16T10:13:50;22.80;68.60
22680;DHT22;11507;44.858;10.374;2023-03-16T10:19:19;22.40;71.10
22680;DHT22;11507;44.858;10.374;2023-03-16T10:21:48;22.70;68.70
22680;DHT22;11507;44.858;10.374;2023-03-16T10:27:05;22.60;62.40
22680;DHT22;11507;44.858;10.374;2023-03-16T10:29:35;22.40;64.40
22680;DHT22;11507;44.858;10.374;2023-03-16T10:32:11;22.90;64.60
22680;DHT22;11507;44.858;10.374;2023-03-16T10:34:38;23.00;58.30
22680;DHT22;11507;44.858;10.374;2023-03-16T10:37:05;23.30;63.40
22680;DHT22;11507;44.858;10.374;2023-03-16T10:39:36;23.80;61.10
22680;DHT22;11507;44.858;10.374;2023-03-16T10:42:14;23.90;59.30
22680;DHT22;11507;44.858;10.374;2023-03-16T10:44:41;24.10;55.60
22680;DHT22;11507;44.858;10.374;2023-03-16T10:47:16;24.30;57.70
22680;DHT22;11507;44.858;10.374;2023-03-16T10:49:44;24.80;60.50
22680;DHT22;11507;44.858;10.374;2023-03-16T10:54:56;25.50;53.70
22680;DHT22;11507;44.858;10.374;2023-03-16T10:57:30;26.00;52.80
22680;DHT22;11507;44.858;10.374;2023-03-16T11:00:21;26.30;49.80
22680;DHT22;11507;44.858;10.374;2023-03-16T11:02:50;26.40;48.50
22680;DHT22;11507;44.858;10.374;2023-03-16T11:07:49;25.50;44.80
22680;DHT22;11507;44.858;10.374;2023-03-16T11:10:36;25.10;46.00
22680;DHT22;11507;44.858;10.374;2023-03-16T11:15:56;25.90;46.60
22680;DHT22;11507;44.858;10.374;2023-03-16T11:18:30;26.40;44.30
22680;DHT22;11507;44.858;10.374;2023-03-16T11:21:14;26.30;43.80
22680;DHT22;11507;44.858;10.374;2023-03-16T11:23:48;26.90;45.20
22680;DHT22;11507;44.858;10.374;2023-03-16T11:26:30;27.40;44.40
22680;DHT22;11507;44.858;10.374;2023-03-16T11:32:02;28.30;41.20
22680;DHT22;11507;44.858;10.374;2023-03-16T11:34:32;28.50;41.70
22680;DHT22;11507;44.858;10.374;2023-03-16T11:46:40;28.80;38.80
22680;DHT22;11507;44.858;10.374;2023-03-16T11:56:51;30.00;36.10
22680;DHT22;11507;44.858;10.374;2023-03-16T12:11:11;30.00;31.60
22680;DHT22;11507;44.858;10.374;2023-03-16T12:19:44;29.90;30.30
22680;DHT22;11507;44.858;10.374;2023-03-16T12:22:30;30.10;33.60
22680;DHT22;11507;44.858;10.374;2023-03-16T12:24:59;30.40;32.60
22680;DHT22;11507;44.858;10.374;2023-03-16T12:27:30;30.50;30.60
22680;DHT22;11507;44.858;10.374;2023-03-16T12:32:58;30.10;33.60
22680;DHT22;11507;44.858;10.374;2023-03-16T12:41:12;31.70;32.10
22680;DHT22;11507;44.858;10.374;2023-03-16T12:43:45;32.00;29.80
22680;DHT22;11507;44.858;10.374;2023-03-16T12:46:59;32.20;30.50
22680;DHT22;11507;44.858;10.374;2023-03-16T12:49:06;32.70;30.00
22680;DHT22;11507;44.858;10.374;2023-03-16T12:51:34;33.50;31.50
22680;DHT22;11507;44.858;10.374;2023-03-16T12:54:01;33.80;29.50
22680;DHT22;11507;44.858;10.374;2023-03-16T12:56:32;33.00;28.80
22680;DHT22;11507;44.858;10.374;2023-03-16T12:59:02;32.40;27.50
22680;DHT22;11507;44.858;10.374;2023-03-16T13:01:41;31.90;29.00
22680;DHT22;11507;44.858;10.374;2023-03-16T13:04:13;30.70;28.90
22680;DHT22;11507;44.858;10.374;2023-03-16T13:06:45;31.40;30.10
22680;DHT22;11507;44.858;10.374;2023-03-16T13:09:23;32.10;30.50
22680;DHT22;11507;44.858;10.374;2023-03-16T13:11:54;32.10;28.90
22680;DHT22;11507;44.858;10.374;2023-03-16T13:14:39;32.40;29.20
22680;DHT22;11507;44.858;10.374;2023-03-16T13:17:26;32.30;28.60
22680;DHT22;11507;44.858;10.374;2023-03-16T13:20:00;32.60;28.60
22680;DHT22;11507;44.858;10.374;2023-03-16T13:22:50;32.30;29.80
22680;DHT22;11507;44.858;10.374;2023-03-16T13:27:51;32.90;28.60
22680;DHT22;11507;44.858;10.374;2023-03-16T13:30:21;32.90;28.30
22680;DHT22;11507;44.858;10.374;2023-03-16T13:32:52;32.00;28.00
22680;DHT22;11507;44.858;10.374;2023-03-16T13:35:18;31.80;29.60
22680;DHT22;11507;44.858;10.374;2023-03-16T13:37:46;32.20;27.80
22680;DHT22;11507;44.858;10.374;2023-03-16T13:40:20;32.60;28.20
22680;DHT22;11507;44.858;10.374;2023-03-16T13:42:48;32.00;28.80
22680;DHT22;11507;44.858;10.374;2023-03-16T13:45:20;31.90;28.30
22680;DHT22;11507;44.858;10.374;2023-03-16T13:47:48;32.90;28.20
22680;DHT22;11507;44.858;10.374;2023-03-16T13:50:15;32.60;27.60
22680;DHT22;11507;44.858;10.374;2023-03-16T13:52:57;32.70;28.20
22680;DHT22;11507;44.858;10.374;2023-03-16T13:55:34;33.10;27.40
22680;DHT22;11507;44.858;10.374;2023-03-16T13:58:02;33.40;27.80
22680;DHT22;11507;44.858;10.374;2023-03-16T14:00:43;33.50;27.60
22680;DHT22;11507;44.858;10.374;2023-03-16T14:03:18;33.70;27.70
22680;DHT22;11507;44.858;10.374;2023-03-16T14:05:46;33.90;26.80
22680;DHT22;11507;44.858;10.374;2023-03-16T14:08:21;34.00;27.10
22680;DHT22;11507;44.858;10.374;2023-03-16T14:10:53;32.50;26.40
22680;DHT22;11507;44.858;10.374;2023-03-16T14:16:14;32.50;28.20
22680;DHT22;11507;44.858;10.374;2023-03-16T14:19:15;32.40;27.40
22680;DHT22;11507;44.858;10.374;2023-03-16T14:21:44;33.00;28.30
22680;DHT22;11507;44.858;10.374;2023-03-16T14:24:32;33.10;27.80
22680;DHT22;11507;44.858;10.374;2023-03-16T14:27:19;33.10;27.60
22680;DHT22;11507;44.858;10.374;2023-03-16T14:29:56;33.40;26.80
22680;DHT22;11507;44.858;10.374;2023-03-16T14:32:29;32.90;27.40
22680;DHT22;11507;44.858;10.374;2023-03-16T14:35:13;32.30;26.60
22680;DHT22;11507;44.858;10.374;2023-03-16T14:37:41;32.20;28.50
22680;DHT22;11507;44.858;10.374;2023-03-16T14:42:54;33.00;27.50
22680;DHT22;11507;44.858;10.374;2023-03-16T14:45:32;32.70;26.50
22680;DHT22;11507;44.858;10.374;2023-03-16T14:48:06;32.50;27.50
22680;DHT22;11507;44.858;10.374;2023-03-16T14:50:36;32.70;26.60
22680;DHT22;11507;44.858;10.374;2023-03-16T14:53:03;32.80;27.10
22680;DHT22;11507;44.858;10.374;2023-03-16T14:55:30;32.80;26.80
22680;DHT22;11507;44.858;10.374;2023-03-16T14:58:03;32.90;27.00
22680;DHT22;11507;44.858;10.374;2023-03-16T15:00:31;33.20;26.70
22680;DHT22;11507;44.858;10.374;2023-03-16T15:03:03;32.50;26.50
22680;DHT22;11507;44.858;10.374;2023-03-16T15:05:38;32.20;27.30
22680;DHT22;11507;44.858;10.374;2023-03-16T15:08:26;31.60;26.80
22680;DHT22;11507;44.858;10.374;2023-03-16T15:11:01;31.40;27.00
22680;DHT22;11507;44.858;10.374;2023-03-16T15:13:29;31.40;27.00
22680;DHT22;11507;44.858;10.374;2023-03-16T15:16:21;31.00;26.30
22680;DHT22;11507;44.858;10.374;2023-03-16T15:18:47;30.10;26.90
22680;DHT22;11507;44.858;10.374;2023-03-16T15:21:17;30.10;26.70
22680;DHT22;11507;44.858;10.374;2023-03-16T15:23:45;29.00;27.20
22680;DHT22;11507;44.858;10.374;2023-03-16T15:26:13;29.50;28.00
22680;DHT22;11507;44.858;10.374;2023-03-16T15:28:40;29.60;27.70
22680;DHT22;11507;44.858;10.374;2023-03-16T15:31:05;29.20;28.10
22680;DHT22;11507;44.858;10.374;2023-03-16T15:33:32;29.20;28.10
22680;DHT22;11507;44.858;10.374;2023-03-16T15:36:00;29.30;28.20
22680;DHT22;11507;44.858;10.374;2023-03-16T15:38:32;28.90;28.20
22680;DHT22;11507;44.858;10.374;2023-03-16T15:41:01;27.90;28.30
22680;DHT22;11507;44.858;10.374;2023-03-16T15:43:29;25.60;29.30
22680;DHT22;11507;44.858;10.374;2023-03-16T15:45:56;23.80;32.60
22680;DHT22;11507;44.858;10.374;2023-03-16T15:48:24;22.50;34.30
22680;DHT22;11507;44.858;10.374;2023-03-16T15:51:41;21.40;36.30
22680;DHT22;11507;44.858;10.374;2023-03-16T15:53:51;20.40;37.50
22680;DHT22;11507;44.858;10.374;2023-03-16T15:56:21;19.70;38.80
22680;DHT22;11507;44.858;10.374;2023-03-16T15:58:50;18.90;40.50
22680;DHT22;11507;44.858;10.374;2023-03-16T16:01:29;18.30;40.60
22680;DHT22;11507;44.858;10.374;2023-03-16T16:03:59;17.70;41.20
22680;DHT22;11507;44.858;10.374;2023-03-16T16:06:26;17.20;43.40
22680;DHT22;11507;44.858;10.374;2023-03-16T16:08:53;16.90;43.60
22680;DHT22;11507;44.858;10.374;2023-03-16T16:11:24;16.70;44.10
22680;DHT22;11507;44.858;10.374;2023-03-16T16:13:52;16.30;44.60
22680;DHT22;11507;44.858;10.374;2023-03-16T16:16:19;16.20;45.40
22680;DHT22;11507;44.858;10.374;2023-03-16T16:18:46;16.00;46.30
22680;DHT22;11507;44.858;10.374;2023-03-16T16:21:24;15.80;46.70
22680;DHT22;11507;44.858;10.374;2023-03-16T16:23:51;15.70;47.60
22680;DHT22;11507;44.858;10.374;2023-03-16T16:26:27;15.50;47.10
22680;DHT22;11507;44.858;10.374;2023-03-16T16:28:55;15.30;49.10
22680;DHT22;11507;44.858;10.374;2023-03-16T16:31:26;15.20;49.10
22680;DHT22;11507;44.858;10.374;2023-03-16T16:33:54;15.00;49.90
22680;DHT22;11507;44.858;10.374;2023-03-16T16:36:22;14.80;50.50
22680;DHT22;11507;44.858;10.374;2023-03-16T16:38:49;14.70;51.70
22680;DHT22;11507;44.858;10.374;2023-03-16T16:41:26;14.60;52.50
22680;DHT22;11507;44.858;10.374;2023-03-16T16:43:53;14.40;53.00
22680;DHT22;11507;44.858;10.374;2023-03-16T16:46:22;14.20;53.40
22680;DHT22;11507;44.858;10.374;2023-03-16T16:48:56;14.10;54.00
22680;DHT22;11507;44.858;10.374;2023-03-16T16:51:25;13.90;54.80
22680;DHT22;11507;44.858;10.374;2023-03-16T16:54:14;13.80;54.90
22680;DHT22;11507;44.858;10.374;2023-03-16T16:56:44;13.60;55.10
22680;DHT22;11507;44.858;10.374;2023-03-16T16:59:19;13.50;55.90
22680;DHT22;11507;44.858;10.374;2023-03-16T17:01:48;13.30;56.70
22680;DHT22;11507;44.858;10.374;2023-03-16T17:04:59;13.20;57.40